Time;durP1;ratioP1;P1;durP2;ratioP2;P2;SDS_P1;SDS_P2;PMS_P1;PMS_P2;Temp;Humidity;BMP_temperature;BMP_pressure;BME280_temperature;BME280_humidity;BME280_pressure;Samples;Min_cycle;Max_cycle;Signal;HPM_P1;HPM_P2
2023/10/28 00:00:17;;;;;;;8.50;2.60;;;;;;;9.42;100.00;98446.48;110780;1270;22703;-80
2023/10/28 00:03:08;;;;;;;8.00;2.20;;;;;;;9.41;100.00;98449.83;108375;1270;23267;-79
2023/10/28 00:05:36;;;;;;;8.40;2.60;;;;;;;9.41;100.00;98453.73;108407;1270;22568;-80
2023/10/28 00:08:05;;;;;;;8.60;2.70;;;;;;;9.40;100.00;98460.31;108070;1264;22532;-80
2023/10/28 00:10:34;;;;;;;10.80;2.90;;;;;;;9.39;100.00;98461.09;108395;1270;22530;-80
2023/10/28 00:13:04;;;;;;;12.30;3.80;;;;;;;9.38;100.00;98463.08;108465;1270;22525;-79
2023/10/28 00:15:32;;;;;;;9.20;2.60;;;;;;;9.36;100.00;98462.06;108351;1264;241930;-80
2023/10/28 00:18:02;;;;;;;6.40;2.00;;;;;;;9.36;100.00;98459.17;108561;1264;23568;-80
2023/10/28 00:20:32;;;;;;;8.70;2.20;;;;;;;9.35;100.00;98456.35;110621;1270;22361;-80
2023/10/28 00:23:00;;;;;;;6.60;1.80;;;;;;;9.35;100.00;98454.89;110895;1267;23187;-79
2023/10/28 00:25:31;;;;;;;9.60;2.80;;;;;;;9.35;100.00;98457.02;110901;1257;22166;-79
2023/10/28 00:27:58;;;;;;;;;;;;;;;9.34;100.00;98463.34;110892;1267;22427;-80
2023/10/28 00:30:26;;;;;;;9.70;3.10;;;;;;;9.32;100.00;98462.79;110943;1264;22346;-80
2023/10/28 00:32:58;;;;;;;12.10;3.70;;;;;;;9.32;100.00;98463.48;110873;1270;22493;-80
2023/10/28 00:35:28;;;;;;;13.00;4.00;;;;;;;9.33;100.00;98463.85;110905;1258;22413;-79
2023/10/28 00:37:56;;;;;;;9.90;3.40;;;;;;;9.35;100.00;98468.59;110938;1270;22910;-79
2023/10/28 00:40:26;;;;;;;12.40;4.10;;;;;;;9.36;100.00;98467.48;110913;1264;22201;-80
2023/10/28 00:42:56;;;;;;;13.30;4.00;;;;;;;9.37;100.00;98466.36;110862;1267;23106;-80
2023/10/28 00:45:24;;;;;;;14.80;3.90;;;;;;;9.38;100.00;98466.71;110961;1270;23200;-81
2023/10/28 00:47:53;;;;;;;10.40;3.60;;;;;;;9.37;100.00;98474.40;110954;1264;22276;-80
2023/10/28 00:50:23;;;;;;;10.50;3.20;;;;;;;9.37;100.00;98475.47;111011;1270;22319;-80
2023/10/28 00:52:54;;;;;;;11.90;3.00;;;;;;;9.36;100.00;98477.40;111044;1264;22692;-79
2023/10/28 00:55:23;;;;;;;8.90;2.90;;;;;;;9.35;100.00;98481.80;110924;1264;22423;-79
2023/10/28 00:57:52;;;;;;;10.40;3.10;;;;;;;9.36;100.00;98487.54;110956;1266;22209;-80
2023/10/28 01:00:20;;;;;;;10.30;3.20;;;;;;;9.39;100.00;98483.92;110915;1270;22300;-81
2023/10/28 01:02:49;;;;;;;12.00;3.30;;;;;;;9.41;100.00;98486.30;110920;1264;22158;-80
2023/10/28 01:05:17;;;;;;;9.90;2.80;;;;;;;9.44;100.00;98484.66;110906;1270;22207;-80
2023/10/28 01:07:47;;;;;;;10.80;3.30;;;;;;;9.46;100.00;98483.19;110901;1262;22209;-79
2023/10/28 01:10:27;;;;;;;11.80;2.90;;;;;;;9.49;100.00;98484.28;110891;1270;23272;-79
2023/10/28 01:12:55;;;;;;;10.50;2.80;;;;;;;9.51;100.00;98489.18;110898;1264;22321;-80
2023/10/28 01:15:24;;;;;;;10.90;2.90;;;;;;;9.52;100.00;98490.04;110921;1264;22894;-80
2023/10/28 01:17:53;;;;;;;12.90;3.80;;;;;;;9.52;100.00;98487.15;110908;1264;22295;-79
2023/10/28 01:20:22;;;;;;;9.80;2.80;;;;;;;9.52;100.00;98489.12;110928;1269;22397;-80
2023/10/28 01:22:50;;;;;;;9.90;3.10;;;;;;;9.53;100.00;98495.51;110927;1264;22234;-79
2023/10/28 01:25:19;;;;;;;8.70;2.60;;;;;;;9.55;100.00;98496.86;110911;1270;22332;-80
2023/10/28 01:27:48;;;;;;;11.60;2.90;;;;;;;9.55;100.00;98502.13;110860;1264;22199;-79
2023/10/28 01:30:17;;;;;;;10.70;2.90;;;;;;;9.55;100.00;98505.48;110870;1270;23188;-79
2023/10/28 01:32:45;;;;;;;10.30;3.20;;;;;;;9.56;100.00;98506.88;110859;1264;22844;-80
2023/10/28 01:35:14;;;;;;;13.60;3.00;;;;;;;9.57;100.00;98508.65;110926;1269;22536;-79
2023/10/28 01:37:43;;;;;;;9.90;3.10;;;;;;;9.55;100.00;98516.86;110886;1264;22413;-80
2023/10/28 01:40:13;;;;;;;11.70;3.50;;;;;;;9.53;100.00;98520.48;110888;1264;22191;-80
2023/10/28 01:42:41;;;;;;;;;;;;;;;9.51;100.00;98525.70;110926;1264;22525;-79
2023/10/28 01:45:11;;;;;;;16.30;3.30;;;;;;;9.48;100.00;98525.05;110908;1267;22903;-79
2023/10/28 01:47:41;;;;;;;12.40;3.90;;;;;;;9.48;100.00;98523.08;110912;1269;23174;-79
2023/10/28 01:50:11;;;;;;;12.90;4.10;;;;;;;9.48;100.00;98522.52;110860;1267;22989;-80
2023/10/28 01:52:40;;;;;;;;;;;;;;;9.47;100.00;98522.68;110935;1264;23410;-80
2023/10/28 01:55:11;;;;;;;14.00;4.60;;;;;;;9.47;100.00;98527.69;110917;1267;22414;-80
2023/10/28 01:57:39;;;;;;;13.10;4.30;;;;;;;9.47;100.00;98527.64;110881;1263;22453;-79
2023/10/28 02:00:12;;;;;;;12.50;4.00;;;;;;;9.48;100.00;98526.97;110862;1270;22323;-80
2023/10/28 02:02:41;;;;;;;13.60;4.60;;;;;;;9.49;100.00;98524.30;110870;1267;23123;-80
2023/10/28 02:05:10;;;;;;;14.90;4.40;;;;;;;9.50;100.00;98524.64;110903;1270;22152;-80
2023/10/28 02:07:38;;;;;;;11.30;4.00;;;;;;;9.48;100.00;98533.61;110981;1264;22485;-84
2023/10/28 02:10:07;;;;;;;11.10;3.50;;;;;;;9.50;100.00;98531.08;110914;1269;22444;-82
2023/10/28 02:12:36;;;;;;;10.40;3.30;;;;;;;9.50;100.00;98527.06;110932;1264;22412;-82
2023/10/28 02:15:08;;;;;;;12.30;4.00;;;;;;;9.47;100.00;98534.12;110909;1263;22447;-81
2023/10/28 02:17:38;;;;;;;11.80;3.80;;;;;;;9.47;100.00;98539.90;110926;1263;22348;-81
2023/10/28 02:20:10;;;;;;;19.30;4.70;;;;;;;9.48;100.00;98535.33;110942;1270;23130;-80
2023/10/28 02:22:38;;;;;;;13.90;4.40;;;;;;;9.49;100.00;98536.45;110879;1270;22209;-81
2023/10/28 02:25:07;;;;;;;10.80;3.80;;;;;;;9.50;100.00;98539.02;110921;1263;22762;-81
2023/10/28 02:27:37;;;;;;;12.80;4.40;;;;;;;9.50;100.00;98543.33;110873;1270;21988;-81
2023/10/28 02:30:07;;;;;;;12.00;4.30;;;;;;;9.51;100.00;98536.34;110913;1265;22431;-79
2023/10/28 02:32:35;;;;;;;14.10;4.80;;;;;;;9.50;100.00;98535.63;110945;1264;22411;-83
2023/10/28 02:35:05;;;;;;;13.80;4.90;;;;;;;9.52;100.00;98545.09;110925;1270;22980;-82
2023/10/28 02:37:33;;;;;;;14.90;4.70;;;;;;;9.52;100.00;98544.28;110920;1270;23166;-82
2023/10/28 02:40:01;;;;;;;14.80;6.50;;;;;;;9.52;100.00;98545.02;110949;1263;22284;-80
2023/10/28 02:42:29;;;;;;;14.60;5.90;;;;;;;9.53;100.00;98544.64;110891;1270;22379;-80
2023/10/28 02:44:57;;;;;;;13.90;5.80;;;;;;;9.53;100.00;98542.40;110861;1263;22167;-79
2023/10/28 02:47:26;;;;;;;16.60;6.00;;;;;;;9.54;100.00;98545.90;110889;1270;22228;-81
2023/10/28 02:49:54;;;;;;;18.40;6.00;;;;;;;9.53;100.00;98551.31;110820;1264;22190;-81
2023/10/28 02:52:22;;;;;;;18.10;6.70;;;;;;;9.54;100.00;98552.27;110914;1264;22288;-80
2023/10/28 02:54:50;;;;;;;16.30;6.10;;;;;;;9.54;100.00;98552.42;110920;1270;22194;-82
2023/10/28 02:57:19;;;;;;;16.60;6.10;;;;;;;9.55;100.00;98549.69;110939;1270;22366;-80
2023/10/28 02:59:47;;;;;;;15.80;6.60;;;;;;;9.55;100.00;98546.85;110885;1270;22329;-81
2023/10/28 03:02:16;;;;;;;15.60;6.50;;;;;;;9.56;100.00;98547.65;110855;1270;22323;-81
2023/10/28 03:04:44;;;;;;;19.30;6.90;;;;;;;9.56;100.00;98550.90;110844;1268;22335;-80
2023/10/28 03:07:12;;;;;;;15.50;5.70;;;;;;;9.57;100.00;98552.16;110898;1264;23010;-80
2023/10/28 03:09:40;;;;;;;17.10;6.10;;;;;;;9.57;100.00;98552.77;110918;1267;22342;-81
2023/10/28 03:12:12;;;;;;;16.00;6.40;;;;;;;9.57;100.00;98542.59;110898;1263;22217;-80
2023/10/28 03:14:41;;;;;;;17.60;6.10;;;;;;;9.58;100.00;98546.84;110867;1264;22200;-81
2023/10/28 03:17:09;;;;;;;17.00;6.10;;;;;;;9.59;100.00;98548.31;110948;1264;22181;-81
2023/10/28 03:19:37;;;;;;;15.40;5.80;;;;;;;9.58;100.00;98553.73;110875;1263;22410;-80
2023/10/28 03:22:05;;;;;;;15.30;4.70;;;;;;;9.60;100.00;98558.09;110884;1264;22582;-79
2023/10/28 03:24:33;;;;;;;18.70;6.00;;;;;;;9.60;100.00;98556.92;110826;1267;23114;-80
2023/10/28 03:27:01;;;;;;;19.20;6.70;;;;;;;9.61;100.00;98558.19;110886;1259;22405;-80
2023/10/28 03:29:30;;;;;;;16.50;5.70;;;;;;;9.60;100.00;98553.02;110878;1263;22379;-79
2023/10/28 03:31:58;;;;;;;13.60;5.00;;;;;;;9.60;100.00;98556.61;110857;1266;22172;-79
2023/10/28 03:34:27;;;;;;;16.00;5.60;;;;;;;9.60;100.00;98550.48;110917;1263;22722;-81
2023/10/28 03:36:55;;;;;;;16.10;5.10;;;;;;;9.61;100.00;98539.94;110771;1264;22463;-80
2023/10/28 03:39:23;;;;;;;13.20;4.80;;;;;;;9.61;100.00;98541.21;110932;1270;22289;-79
2023/10/28 03:41:51;;;;;;;12.70;4.60;;;;;;;9.61;100.00;98542.13;110858;1263;22331;-81
2023/10/28 03:44:20;;;;;;;14.00;5.10;;;;;;;9.61;100.00;98546.13;110902;1264;22403;-81
2023/10/28 03:46:49;;;;;;;12.80;4.40;;;;;;;9.62;100.00;98552.29;110913;1263;22342;-79
2023/10/28 03:49:17;;;;;;;12.90;3.40;;;;;;;9.63;100.00;98554.67;110837;1264;22350;-80
2023/10/28 03:51:45;;;;;;;13.20;4.30;;;;;;;9.63;100.00;98554.08;110873;1255;22472;-81
2023/10/28 03:54:14;;;;;;;11.70;3.10;;;;;;;9.64;100.00;98560.59;110944;1263;22754;-80
2023/10/28 03:56:42;;;;;;;10.20;3.00;;;;;;;9.65;100.00;98555.98;110923;1263;23059;-80
2023/10/28 03:59:10;;;;;;;11.80;4.10;;;;;;;9.65;100.00;98556.89;110797;1270;22361;-80
2023/10/28 04:01:40;;;;;;;12.80;3.70;;;;;;;9.66;100.00;98556.29;110894;1251;22912;-80
2023/10/28 04:04:08;;;;;;;8.90;2.60;;;;;;;9.66;100.00;98558.11;110904;1264;23082;-81
2023/10/28 04:06:37;;;;;;;14.40;4.20;;;;;;;9.66;100.00;98556.23;110931;1253;22354;-81
2023/10/28 04:09:07;;;;;;;12.40;3.70;;;;;;;9.68;100.00;98563.22;110913;1267;22914;-79
2023/10/28 04:11:34;;;;;;;;;;;;;;;9.68;100.00;98565.69;110918;1270;22427;-79
2023/10/28 04:14:02;;;;;;;14.70;4.50;;;;;;;9.69;100.00;98567.10;110907;1270;22341;-80
2023/10/28 04:16:31;;;;;;;11.40;4.20;;;;;;;9.69;100.00;98567.81;110929;1264;22332;-80
2023/10/28 04:19:00;;;;;;;11.40;3.70;;;;;;;9.71;100.00;98570.14;110941;1269;22404;-80
2023/10/28 04:21:29;;;;;;;11.40;3.50;;;;;;;9.70;100.00;98572.06;110904;1270;22364;-80
2023/10/28 04:23:57;;;;;;;10.30;3.60;;;;;;;9.71;100.00;98569.49;110936;1270;22334;-81
2023/10/28 04:26:25;;;;;;;12.80;3.40;;;;;;;9.73;100.00;98565.58;110860;1263;22428;-80
2023/10/28 04:28:53;;;;;;;10.50;3.00;;;;;;;9.74;100.00;98568.00;110612;1256;23266;-81
2023/10/28 04:31:21;;;;;;;10.20;3.30;;;;;;;9.74;100.00;98569.52;110798;1266;22228;-79
2023/10/28 04:33:49;;;;;;;13.20;3.70;;;;;;;9.75;100.00;98569.02;110887;1263;22448;-80
2023/10/28 04:36:17;;;;;;;17.10;3.70;;;;;;;9.76;100.00;98571.49;110896;1263;22404;-79
2023/10/28 04:38:45;;;;;;;12.00;3.50;;;;;;;9.76;100.00;98570.84;110920;1264;23109;-78
2023/10/28 04:41:14;;;;;;;11.90;3.10;;;;;;;9.76;100.00;98575.75;110864;1262;22566;-79
2023/10/28 04:43:44;;;;;;;11.20;3.70;;;;;;;9.76;100.00;98572.86;110897;1263;22330;-79
2023/10/28 04:46:13;;;;;;;10.60;2.90;;;;;;;9.76;100.00;98576.50;110884;1270;22269;-78
2023/10/28 04:48:42;;;;;;;16.30;3.40;;;;;;;9.76;100.00;98578.34;110883;1270;22170;-79
2023/10/28 04:51:10;;;;;;;10.20;3.50;;;;;;;9.77;100.00;98578.17;110950;1270;22279;-79
2023/10/28 04:53:39;;;;;;;10.00;2.70;;;;;;;9.76;100.00;98580.85;110981;1263;22439;-79
2023/10/28 04:56:08;;;;;;;9.60;2.60;;;;;;;9.75;100.00;98580.77;110960;1263;22329;-79
2023/10/28 04:58:36;;;;;;;9.70;2.50;;;;;;;9.75;100.00;98579.55;110870;1268;22395;-79
2023/10/28 05:01:05;;;;;;;7.50;2.00;;;;;;;9.73;100.00;98578.84;110863;1267;24805;-79
2023/10/28 05:03:34;;;;;;;9.00;2.00;;;;;;;9.74;100.00;98579.70;110861;1263;22179;-79
2023/10/28 05:06:02;;;;;;;10.40;2.40;;;;;;;9.74;100.00;98580.81;110820;1263;22401;-79
2023/10/28 05:08:31;;;;;;;8.60;2.30;;;;;;;9.73;100.00;98581.63;110859;1260;22304;-80
2023/10/28 05:10:59;;;;;;;8.30;2.20;;;;;;;9.73;100.00;98586.80;110947;1263;23214;-83
2023/10/28 05:13:27;;;;;;;8.90;1.90;;;;;;;9.73;100.00;98586.45;110872;1263;22341;-80
2023/10/28 05:15:55;;;;;;;12.40;2.10;;;;;;;9.72;100.00;98590.35;110934;1263;22343;-80
2023/10/28 05:18:23;;;;;;;9.90;2.30;;;;;;;9.71;100.00;98594.10;110950;1263;22454;-79
2023/10/28 05:20:53;;;;;;;8.30;2.70;;;;;;;9.70;100.00;98596.95;110942;1263;22590;-78
2023/10/28 05:23:22;;;;;;;7.90;2.20;;;;;;;9.69;100.00;98597.55;110861;1267;22399;-78
2023/10/28 05:25:50;;;;;;;8.40;2.20;;;;;;;9.69;100.00;98602.33;110885;1269;22438;-78
2023/10/28 05:28:18;;;;;;;11.20;2.20;;;;;;;9.69;100.00;98606.08;110852;1263;22335;-78
2023/10/28 05:30:46;;;;;;;8.50;2.10;;;;;;;9.70;100.00;98608.95;110852;1266;22297;-79
2023/10/28 05:33:14;;;;;;;8.60;2.10;;;;;;;9.70;100.00;98613.16;110887;1270;22268;-79
2023/10/28 05:35:42;;;;;;;11.70;2.70;;;;;;;9.71;100.00;98612.64;110853;1270;22929;-77
2023/10/28 05:38:13;;;;;;;8.30;2.50;;;;;;;9.70;100.00;98616.04;110898;1266;22223;-78
2023/10/28 05:40:41;;;;;;;10.00;3.00;;;;;;;9.69;100.00;98614.53;110871;1270;22984;-78
2023/10/28 05:43:09;;;;;;;8.20;2.80;;;;;;;9.70;100.00;98615.74;110910;1270;22141;-77
2023/10/28 05:45:38;;;;;;;8.50;2.50;;;;;;;9.71;100.00;98616.45;110888;1270;22218;-78
2023/10/28 05:48:07;;;;;;;11.30;2.70;;;;;;;9.71;100.00;98626.23;110934;1270;23089;-78
2023/10/28 05:50:35;;;;;;;10.40;2.50;;;;;;;9.71;100.00;98627.39;110884;1270;22400;-78
2023/10/28 05:53:03;;;;;;;9.80;2.30;;;;;;;9.72;100.00;98626.31;110875;1270;22844;-78
2023/10/28 05:55:32;;;;;;;12.10;2.20;;;;;;;9.74;100.00;98624.30;110864;1270;22192;-78
2023/10/28 05:58:00;;;;;;;13.10;2.40;;;;;;;9.74;100.00;98631.48;110889;1270;22621;-78
2023/10/28 06:00:28;;;;;;;11.20;2.70;;;;;;;9.74;100.00;98636.89;110916;1270;22267;-77
2023/10/28 06:02:56;;;;;;;7.40;2.40;;;;;;;9.74;100.00;98643.33;110876;1270;23304;-78
2023/10/28 06:05:25;;;;;;;9.80;2.70;;;;;;;9.76;100.00;98640.86;110897;1270;23341;-79
2023/10/28 06:07:53;;;;;;;9.20;2.40;;;;;;;9.76;100.00;98641.46;110879;1270;22820;-80
2023/10/28 06:10:22;;;;;;;8.30;2.60;;;;;;;9.77;100.00;98640.20;110937;1270;22214;-79
2023/10/28 06:12:51;;;;;;;9.40;2.70;;;;;;;9.78;100.00;98644.20;110609;1269;23288;-78
2023/10/28 06:15:19;;;;;;;9.10;2.50;;;;;;;9.78;100.00;98646.15;110909;1260;23035;-78
2023/10/28 06:17:48;;;;;;;10.50;3.20;;;;;;;9.77;100.00;98644.14;110908;1264;22476;-77
2023/10/28 06:20:16;;;;;;;10.60;2.50;;;;;;;9.75;100.00;98648.80;110884;1270;22276;-78
2023/10/28 06:22:44;;;;;;;8.00;2.30;;;;;;;9.73;100.00;98648.57;110871;1263;23306;-78
2023/10/28 06:25:14;;;;;;;7.30;2.40;;;;;;;9.71;100.00;98655.77;110851;1266;23509;-78
2023/10/28 06:27:44;;;;;;;8.30;2.30;;;;;;;9.68;100.00;98663.77;110884;1267;22369;-79
2023/10/28 06:30:14;;;;;;;7.80;2.50;;;;;;;9.66;100.00;98666.21;110928;1269;23224;-78
2023/10/28 06:32:41;;;;;;;;;;;;;;;9.63;100.00;98670.90;110878;1269;22440;-78
2023/10/28 06:35:10;;;;;;;6.90;2.00;;;;;;;9.59;100.00;98671.25;110901;1270;22168;-78
2023/10/28 06:37:39;;;;;;;7.00;2.00;;;;;;;9.56;100.00;98675.77;110893;1266;22439;-78
2023/10/28 06:40:10;;;;;;;9.50;2.80;;;;;;;9.54;100.00;98682.23;110861;1270;22197;-78
2023/10/28 06:42:37;;;;;;;;;;;;;;;9.53;100.00;98681.44;110885;1270;22921;-80
2023/10/28 06:45:07;;;;;;;11.90;2.60;;;;;;;9.50;100.00;98685.73;110909;1263;22190;-78
2023/10/28 06:47:35;;;;;;;6.20;2.10;;;;;;;9.48;100.00;98689.55;110928;1264;22482;-79
2023/10/28 06:50:04;;;;;;;15.50;2.60;;;;;;;9.46;100.00;98692.95;110907;1263;22185;-78
2023/10/28 06:52:33;;;;;;;9.40;2.40;;;;;;;9.47;100.00;98695.67;110896;1270;22491;-77
2023/10/28 06:55:02;;;;;;;10.40;3.30;;;;;;;9.47;100.00;98697.95;110908;1270;23064;-80
2023/10/28 06:57:30;;;;;;;9.40;3.10;;;;;;;9.47;100.00;98697.96;110900;1270;22176;-79
2023/10/28 06:59:59;;;;;;;7.60;2.30;;;;;;;9.47;100.00;98704.90;110882;1270;22978;-78
2023/10/28 07:02:27;;;;;;;8.40;2.70;;;;;;;9.47;100.00;98709.96;110861;1270;22176;-79
2023/10/28 07:04:55;;;;;;;9.20;2.40;;;;;;;9.48;100.00;98713.61;110908;1270;22221;-78
2023/10/28 07:07:23;;;;;;;10.00;3.20;;;;;;;9.49;100.00;98718.32;110879;1270;22263;-78
2023/10/28 07:09:52;;;;;;;7.10;2.20;;;;;;;9.51;100.00;98718.02;110883;1270;22198;-78
2023/10/28 07:12:20;;;;;;;11.70;2.50;;;;;;;9.52;100.00;98721.21;110880;1270;22887;-78
2023/10/28 07:14:48;;;;;;;8.20;2.70;;;;;;;9.52;100.00;98722.52;110880;1270;22393;-78
2023/10/28 07:17:16;;;;;;;7.60;2.40;;;;;;;9.54;100.00;98726.61;110898;1270;22385;-78
2023/10/28 07:19:44;;;;;;;7.80;2.20;;;;;;;9.55;100.00;98732.19;110876;1265;22525;-79
2023/10/28 07:22:16;;;;;;;12.80;2.80;;;;;;;9.58;100.00;98735.53;110879;1270;22221;-79
2023/10/28 07:24:44;;;;;;;10.50;2.40;;;;;;;9.62;100.00;98731.42;110898;1270;22246;-79
2023/10/28 07:27:12;;;;;;;14.20;2.40;;;;;;;9.66;100.00;98734.35;110864;1270;22313;-78
2023/10/28 07:29:40;;;;;;;8.60;2.80;;;;;;;9.70;100.00;98735.81;110880;1270;22325;-79
2023/10/28 07:32:09;;;;;;;7.80;2.40;;;;;;;9.73;100.00;98733.29;110874;1270;22678;-79
2023/10/28 07:34:37;;;;;;;6.30;2.00;;;;;;;9.76;100.00;98737.27;110910;1270;23263;-78
2023/10/28 07:37:05;;;;;;;8.00;1.90;;;;;;;9.80;100.00;98736.77;110862;1270;22986;-78
2023/10/28 07:39:34;;;;;;;7.30;2.10;;;;;;;9.85;100.00;98742.22;110878;1264;22420;-78
2023/10/28 07:42:03;;;;;;;6.50;1.70;;;;;;;9.90;100.00;98746.23;110885;1270;22524;-80
2023/10/28 07:44:32;;;;;;;9.50;2.00;;;;;;;9.94;100.00;98749.70;110858;1270;22247;-78
2023/10/28 07:47:00;;;;;;;8.50;2.10;;;;;;;9.98;100.00;98754.36;110901;1270;22343;-78
2023/10/28 07:49:28;;;;;;;6.10;1.80;;;;;;;10.03;100.00;98752.16;110863;1267;22905;-78
2023/10/28 07:51:56;;;;;;;7.50;1.90;;;;;;;10.07;100.00;98760.86;110908;1269;22494;-77
2023/10/28 07:54:24;;;;;;;6.30;1.70;;;;;;;10.13;100.00;98764.02;110894;1263;22189;-77
2023/10/28 07:56:53;;;;;;;6.50;1.80;;;;;;;10.18;100.00;98772.68;110862;1270;22228;-77
2023/10/28 07:59:21;;;;;;;8.40;2.70;;;;;;;10.24;100.00;98774.89;110931;1270;22378;-78
2023/10/28 08:01:49;;;;;;;7.30;2.00;;;;;;;10.30;100.00;98777.27;110847;1270;22383;-78
2023/10/28 08:04:17;;;;;;;8.40;1.70;;;;;;;10.35;100.00;98778.81;110911;1270;22167;-78
2023/10/28 08:06:45;;;;;;;5.90;1.70;;;;;;;10.41;100.00;98781.17;110863;1270;22970;-77
2023/10/28 08:09:15;;;;;;;5.50;1.50;;;;;;;10.48;100.00;98783.79;110839;1263;22352;-75
2023/10/28 08:11:43;;;;;;;8.80;1.70;;;;;;;10.55;100.00;98783.70;110827;1266;22193;-76
2023/10/28 08:14:13;;;;;;;9.90;1.50;;;;;;;10.63;100.00;98790.48;110869;1263;22182;-77
2023/10/28 08:16:42;;;;;;;8.60;1.70;;;;;;;10.70;100.00;98791.05;110874;1270;22340;-76
2023/10/28 08:19:12;;;;;;;5.70;1.60;;;;;;;10.78;100.00;98786.14;110857;1263;22279;-77
2023/10/28 08:21:41;;;;;;;5.10;1.30;;;;;;;10.85;100.00;98789.65;110824;1263;22387;-77
2023/10/28 08:24:12;;;;;;;8.40;1.90;;;;;;;10.91;100.00;98789.77;110867;1263;22175;-77
2023/10/28 08:26:42;;;;;;;7.90;1.50;;;;;;;11.00;100.00;98791.65;110874;1263;22227;-77
2023/10/28 08:29:11;;;;;;;4.60;1.30;;;;;;;11.07;100.00;98791.70;110865;1269;22244;-76
2023/10/28 08:31:39;;;;;;;9.10;1.40;;;;;;;11.15;100.00;98792.92;110877;1270;22437;-77
2023/10/28 08:34:07;;;;;;;5.90;1.50;;;;;;;11.24;100.00;98792.86;110842;1266;22449;-76
2023/10/28 08:36:35;;;;;;;4.20;1.20;;;;;;;11.32;100.00;98799.81;110841;1270;22156;-76
2023/10/28 08:39:05;;;;;;;8.30;1.00;;;;;;;11.40;100.00;98795.95;110883;1270;22853;-77
2023/10/28 08:41:34;;;;;;;8.00;1.60;;;;;;;11.49;100.00;98799.39;110797;1263;22372;-76
2023/10/28 08:44:04;;;;;;;5.00;1.20;;;;;;;11.57;100.00;98803.70;110816;1263;22923;-77
2023/10/28 08:46:33;;;;;;;6.30;1.70;;;;;;;11.63;100.00;98804.67;110888;1264;22339;-76
2023/10/28 08:49:04;;;;;;;4.50;1.10;;;;;;;11.69;100.00;98812.88;110891;1270;22194;-78
2023/10/28 08:51:33;;;;;;;6.60;1.10;;;;;;;11.73;100.00;98814.73;110925;1269;22382;-77
2023/10/28 08:54:04;;;;;;;5.80;1.20;;;;;;;11.76;100.00;98815.15;110898;1270;22322;-76
2023/10/28 08:56:36;;;;;;;7.10;1.20;;;;;;;11.78;100.00;98814.67;110861;1263;22325;-76
2023/10/28 08:59:04;;;;;;;8.80;1.30;;;;;;;11.80;100.00;98817.66;110873;1263;22365;-77
2023/10/28 09:01:34;;;;;;;4.70;0.90;;;;;;;11.82;100.00;98821.66;110806;1263;23029;-77
2023/10/28 09:04:04;;;;;;;;;;;;;;;11.83;100.00;98821.45;110839;1263;22521;-77
2023/10/28 09:06:33;;;;;;;4.50;0.90;;;;;;;11.86;100.00;98821.63;110813;1262;22259;-77
2023/10/28 09:09:04;;;;;;;3.60;1.20;;;;;;;11.89;100.00;98827.03;110829;1263;22402;-77
2023/10/28 09:11:32;;;;;;;6.10;1.40;;;;;;;11.92;100.00;98821.20;110814;1267;22319;-76
2023/10/28 09:14:01;;;;;;;4.90;1.10;;;;;;;11.96;100.00;98821.38;110865;1267;22430;-76
2023/10/28 09:16:28;;;;;;;5.90;1.10;;;;;;;12.00;100.00;98822.83;110905;1266;22205;-76
2023/10/28 09:18:57;;;;;;;2.80;0.80;;;;;;;12.03;100.00;98825.70;110864;1270;23477;-76
2023/10/28 09:21:26;;;;;;;5.60;1.20;;;;;;;12.07;100.00;98831.15;110857;1270;22683;-77
2023/10/28 09:23:54;;;;;;;5.40;0.90;;;;;;;12.11;100.00;98835.41;110898;1269;22434;-76
2023/10/28 09:26:22;;;;;;;6.20;1.00;;;;;;;12.16;100.00;98838.58;110847;1270;22238;-78
2023/10/28 09:28:50;;;;;;;7.10;1.00;;;;;;;12.22;100.00;98843.15;110834;1267;23013;-76
2023/10/28 09:31:24;;;;;;;4.90;1.10;;;;;;;12.28;100.00;98844.00;110829;1270;22701;-77
2023/10/28 09:33:53;;;;;;;3.60;0.90;;;;;;;12.35;100.00;98846.48;110809;1259;22397;-76
2023/10/28 09:36:22;;;;;;;6.40;1.10;;;;;;;12.43;100.00;98846.95;110867;1269;22385;-77
2023/10/28 09:38:50;;;;;;;9.30;1.20;;;;;;;12.50;100.00;98849.02;110843;1270;22194;-77
2023/10/28 09:41:19;;;;;;;4.60;1.10;;;;;;;12.57;100.00;98849.89;110850;1270;22200;-77
2023/10/28 09:43:49;;;;;;;2.80;0.70;;;;;;;12.65;100.00;98845.13;110860;1268;22198;-76
2023/10/28 09:46:20;;;;;;;9.30;1.00;;;;;;;12.72;100.00;98851.05;110878;1259;22191;-77
2023/10/28 09:48:52;;;;;;;5.80;0.90;;;;;;;12.79;100.00;98847.91;110877;1269;22414;-76
2023/10/28 09:51:22;;;;;;;10.40;0.80;;;;;;;12.85;100.00;98844.31;110816;1267;23247;-76
2023/10/28 09:53:58;;;;;;;3.00;0.50;;;;;;;12.91;100.00;98843.70;110861;1267;22477;-76
2023/10/28 09:56:34;;;;;;;4.40;0.60;;;;;;;12.95;100.00;98851.17;110821;1270;22286;-76
2023/10/28 09:59:12;;;;;;;4.70;0.40;;;;;;;12.98;100.00;98853.42;110869;1270;22207;-77
2023/10/28 10:01:50;;;;;;;2.80;0.30;;;;;;;12.98;100.00;98852.16;110852;1270;22674;-76
2023/10/28 10:04:31;;;;;;;1.20;0.30;;;;;;;12.97;100.00;98855.28;110889;1267;22901;-76
2023/10/28 10:06:59;;;;;;;1.50;0.30;;;;;;;12.98;100.00;98855.67;110891;1270;22757;-77
2023/10/28 10:09:27;;;;;;;4.00;0.60;;;;;;;12.99;100.00;98854.80;110860;1267;22421;-77
2023/10/28 10:11:57;;;;;;;2.40;0.30;;;;;;;12.98;100.00;98855.46;110879;1269;22401;-77
2023/10/28 10:14:32;;;;;;;1.80;0.40;;;;;;;13.00;100.00;98854.57;110908;1266;22427;-76
2023/10/28 10:17:12;;;;;;;2.00;0.30;;;;;;;13.04;100.00;98856.27;110910;1270;23216;-76
2023/10/28 10:19:41;;;;;;;2.80;0.50;;;;;;;13.09;100.00;98862.98;110887;1270;22201;-76
2023/10/28 10:22:10;;;;;;;5.20;0.40;;;;;;;13.13;100.00;98860.87;110852;1270;22141;-77
2023/10/28 10:24:49;;;;;;;2.60;0.30;;;;;;;13.16;100.00;98860.51;110851;1269;22347;-76
2023/10/28 10:27:34;;;;;;;1.40;0.20;;;;;;;13.18;100.00;98859.36;110807;1264;22368;-77
2023/10/28 10:30:09;;;;;;;1.70;0.40;;;;;;;13.21;100.00;98862.07;110847;1264;22642;-77
2023/10/28 10:32:46;;;;;;;5.50;0.40;;;;;;;13.22;100.00;98863.02;110666;1266;22370;-78
2023/10/28 10:35:30;;;;;;;4.80;0.40;;;;;;;13.24;99.86;98866.09;110770;1269;23233;-77
2023/10/28 10:38:03;;;;;;;1.30;0.30;;;;;;;13.27;99.45;98866.23;110820;1263;22335;-77
2023/10/28 10:40:34;;;;;;;1.60;0.20;;;;;;;13.28;99.50;98867.02;110684;1266;22451;-77
2023/10/28 10:43:06;;;;;;;1.10;0.20;;;;;;;13.29;99.41;98869.91;110767;1263;22277;-78
2023/10/28 10:45:36;;;;;;;2.70;0.20;;;;;;;13.29;98.64;98872.66;110802;1263;22348;-77
2023/10/28 10:48:08;;;;;;;1.00;0.20;;;;;;;13.28;98.52;98873.09;110823;1262;22361;-77
2023/10/28 10:50:37;;;;;;;1.50;0.20;;;;;;;13.26;98.23;98874.08;110792;1267;22369;-77
2023/10/28 10:53:06;;;;;;;1.40;0.10;;;;;;;13.25;97.92;98878.48;110864;1263;22425;-77
2023/10/28 10:55:34;;;;;;;0.90;0.20;;;;;;;13.23;97.61;98881.25;110687;1265;22390;-78
2023/10/28 10:58:03;;;;;;;1.60;0.10;;;;;;;13.22;97.22;98889.62;110758;1263;22412;-77
2023/10/28 11:00:33;;;;;;;1.00;0.20;;;;;;;13.20;97.06;98892.36;110740;1264;22397;-77
2023/10/28 11:03:03;;;;;;;;;;;;;;;13.18;97.00;98892.31;110836;1263;23216;-77
2023/10/28 11:05:32;;;;;;;0.80;0.20;;;;;;;13.16;96.80;98891.73;110753;1263;22415;-78
2023/10/28 11:08:00;;;;;;;1.80;0.20;;;;;;;13.13;96.78;98895.39;110768;1264;22350;-77
2023/10/28 11:10:28;;;;;;;1.10;0.20;;;;;;;13.14;96.95;98897.98;110745;1257;22410;-78
2023/10/28 11:12:57;;;;;;;1.00;0.20;;;;;;;13.15;97.01;98892.52;110825;1263;22355;-78
2023/10/28 11:15:25;;;;;;;1.50;0.10;;;;;;;13.17;96.92;98895.59;110869;1270;22360;-78
2023/10/28 11:17:53;;;;;;;1.90;0.20;;;;;;;13.20;96.73;98891.08;110894;1264;22700;-77
2023/10/28 11:20:21;;;;;;;2.50;0.20;;;;;;;13.22;96.43;98899.86;110861;1269;22288;-78
2023/10/28 11:22:50;;;;;;;1.00;0.20;;;;;;;13.22;95.91;98899.90;110812;1264;22153;-77
2023/10/28 11:25:20;;;;;;;0.40;0.20;;;;;;;13.21;95.66;98896.66;110873;1263;22328;-77
2023/10/28 11:27:51;;;;;;;0.90;0.10;;;;;;;13.21;95.85;98895.02;110885;1260;22169;-79
2023/10/28 11:30:20;;;;;;;2.20;0.30;;;;;;;13.22;95.78;98895.27;110882;1270;22360;-78